sensor_id;sensor_type;location;lat;lon;timestamp;temperature;humidity
26182;DHT22;13927;51.534;11.866;2023-10-09T00:00:14;12.80;99.90
26182;DHT22;13927;51.534;11.866;2023-10-09T00:03:00;12.80;99.90
26182;DHT22;13927;51.534;11.866;2023-10-09T00:05:30;12.80;99.90
26182;DHT22;13927;51.534;11.866;2023-10-09T00:08:15;12.80;99.90
26182;DHT22;13927;51.534;11.866;2023-10-09T00:10:49;12.90;99.90
26182;DHT22;13927;51.534;11.866;2023-10-09T00:13:25;12.90;99.90
26182;DHT22;13927;51.534;11.866;2023-10-09T00:15:56;12.90;99.90
26182;DHT22;13927;51.534;11.866;2023-10-09T00:18:27;12.90;99.90
26182;DHT22;13927;51.534;11.866;2023-10-09T00:20:59;13.00;99.90
26182;DHT22;13927;51.534;11.866;2023-10-09T00:23:38;13.00;99.90
26182;DHT22;13927;51.534;11.866;2023-10-09T00:26:08;13.00;99.90
26182;DHT22;13927;51.534;11.866;2023-10-09T00:28:36;13.00;99.90
26182;DHT22;13927;51.534;11.866;2023-10-09T00:31:06;13.10;99.90
26182;DHT22;13927;51.534;11.866;2023-10-09T00:33:33;13.10;99.90
26182;DHT22;13927;51.534;11.866;2023-10-09T00:36:03;13.10;99.90
26182;DHT22;13927;51.534;11.866;2023-10-09T00:38:39;13.10;99.90
26182;DHT22;13927;51.534;11.866;2023-10-09T00:41:15;13.10;99.90
26182;DHT22;13927;51.534;11.866;2023-10-09T00:43:51;13.10;99.90
26182;DHT22;13927;51.534;11.866;2023-10-09T00:46:19;13.10;99.90
26182;DHT22;13927;51.534;11.866;2023-10-09T00:48:59;13.10;99.90
26182;DHT22;13927;51.534;11.866;2023-10-09T00:51:28;13.10;99.90
26182;DHT22;13927;51.534;11.866;2023-10-09T00:54:02;13.20;99.90
26182;DHT22;13927;51.534;11.866;2023-10-09T00:56:40;13.20;99.90
26182;DHT22;13927;51.534;11.866;2023-10-09T00:59:17;13.20;99.90
26182;DHT22;13927;51.534;11.866;2023-10-09T01:01:46;13.20;99.90
26182;DHT22;13927;51.534;11.866;2023-10-09T01:04:23;13.20;99.90
26182;DHT22;13927;51.534;11.866;2023-10-09T01:06:51;13.30;99.90
26182;DHT22;13927;51.534;11.866;2023-10-09T01:09:41;13.30;99.90
26182;DHT22;13927;51.534;11.866;2023-10-09T01:12:11;13.30;99.90
26182;DHT22;13927;51.534;11.866;2023-10-09T01:14:45;13.30;99.90
26182;DHT22;13927;51.534;11.866;2023-10-09T01:17:18;13.40;99.90
26182;DHT22;13927;51.534;11.866;2023-10-09T01:19:56;13.40;99.90
26182;DHT22;13927;51.534;11.866;2023-10-09T01:22:24;13.40;99.90
26182;DHT22;13927;51.534;11.866;2023-10-09T01:24:49;13.40;99.90
26182;DHT22;13927;51.534;11.866;2023-10-09T01:27:16;13.40;99.90
26182;DHT22;13927;51.534;11.866;2023-10-09T01:29:42;13.50;99.90
26182;DHT22;13927;51.534;11.866;2023-10-09T01:32:09;13.50;99.90
26182;DHT22;13927;51.534;11.866;2023-10-09T01:34:47;13.50;99.90
26182;DHT22;13927;51.534;11.866;2023-10-09T01:37:20;13.50;99.90
26182;DHT22;13927;51.534;11.866;2023-10-09T01:39:57;13.50;99.90
26182;DHT22;13927;51.534;11.866;2023-10-09T01:42:24;13.50;99.90
26182;DHT22;13927;51.534;11.866;2023-10-09T01:45:14;13.40;99.90
26182;DHT22;13927;51.534;11.866;2023-10-09T01:47:45;13.40;99.90
26182;DHT22;13927;51.534;11.866;2023-10-09T01:50:17;13.40;99.90
26182;DHT22;13927;51.534;11.866;2023-10-09T01:53:03;13.40;99.90
26182;DHT22;13927;51.534;11.866;2023-10-09T01:55:31;13.30;99.90
26182;DHT22;13927;51.534;11.866;2023-10-09T01:58:01;13.30;99.90
26182;DHT22;13927;51.534;11.866;2023-10-09T02:00:34;13.30;99.90
26182;DHT22;13927;51.534;11.866;2023-10-09T02:03:09;13.20;99.90
26182;DHT22;13927;51.534;11.866;2023-10-09T02:05:49;13.20;99.90
26182;DHT22;13927;51.534;11.866;2023-10-09T02:08:29;13.10;99.90
26182;DHT22;13927;51.534;11.866;2023-10-09T02:11:01;13.10;99.90
26182;DHT22;13927;51.534;11.866;2023-10-09T02:13:28;13.00;99.90
26182;DHT22;13927;51.534;11.866;2023-10-09T02:16:00;13.00;99.90
26182;DHT22;13927;51.534;11.866;2023-10-09T02:18:41;12.90;99.90
26182;DHT22;13927;51.534;11.866;2023-10-09T02:21:21;12.90;99.90
26182;DHT22;13927;51.534;11.866;2023-10-09T02:24:05;12.90;99.90
26182;DHT22;13927;51.534;11.866;2023-10-09T02:26:38;12.90;99.90
26182;DHT22;13927;51.534;11.866;2023-10-09T02:29:04;12.90;99.90
26182;DHT22;13927;51.534;11.866;2023-10-09T02:31:41;12.90;99.90
26182;DHT22;13927;51.534;11.866;2023-10-09T02:34:11;12.90;99.90
26182;DHT22;13927;51.534;11.866;2023-10-09T02:36:38;12.90;99.90
26182;DHT22;13927;51.534;11.866;2023-10-09T02:39:14;12.90;99.90
26182;DHT22;13927;51.534;11.866;2023-10-09T02:41:55;12.90;99.90
26182;DHT22;13927;51.534;11.866;2023-10-09T02:44:40;12.90;99.90
26182;DHT22;13927;51.534;11.866;2023-10-09T02:47:20;13.00;99.90
26182;DHT22;13927;51.534;11.866;2023-10-09T02:49:51;13.00;99.90
26182;DHT22;13927;51.534;11.866;2023-10-09T02:52:17;13.00;99.90
26182;DHT22;13927;51.534;11.866;2023-10-09T02:54:51;13.00;99.90
26182;DHT22;13927;51.534;11.866;2023-10-09T02:57:28;13.00;99.90
26182;DHT22;13927;51.534;11.866;2023-10-09T03:00:03;13.00;99.90
26182;DHT22;13927;51.534;11.866;2023-10-09T03:02:33;13.10;99.90
26182;DHT22;13927;51.534;11.866;2023-10-09T03:04:59;13.00;99.90
26182;DHT22;13927;51.534;11.866;2023-10-09T03:07:25;13.10;99.90
26182;DHT22;13927;51.534;11.866;2023-10-09T03:09:51;13.00;99.90
26182;DHT22;13927;51.534;11.866;2023-10-09T03:12:16;13.00;99.90
26182;DHT22;13927;51.534;11.866;2023-10-09T03:14:44;13.00;99.90
26182;DHT22;13927;51.534;11.866;2023-10-09T03:17:10;13.00;99.90
26182;DHT22;13927;51.534;11.866;2023-10-09T03:19:39;13.00;99.90
26182;DHT22;13927;51.534;11.866;2023-10-09T03:22:06;13.00;99.90
26182;DHT22;13927;51.534;11.866;2023-10-09T03:24:36;13.00;99.90
26182;DHT22;13927;51.534;11.866;2023-10-09T03:27:03;13.00;99.90
26182;DHT22;13927;51.534;11.866;2023-10-09T03:29:29;12.90;99.90
26182;DHT22;13927;51.534;11.866;2023-10-09T03:31:55;12.90;99.90
26182;DHT22;13927;51.534;11.866;2023-10-09T03:34:22;12.90;99.90
26182;DHT22;13927;51.534;11.866;2023-10-09T03:36:49;12.90;99.90
26182;DHT22;13927;51.534;11.866;2023-10-09T03:39:25;12.90;99.90
26182;DHT22;13927;51.534;11.866;2023-10-09T03:42:07;12.80;99.90
26182;DHT22;13927;51.534;11.866;2023-10-09T03:44:41;12.80;99.90
26182;DHT22;13927;51.534;11.866;2023-10-09T03:47:09;12.80;99.90
26182;DHT22;13927;51.534;11.866;2023-10-09T03:49:36;12.80;99.90
26182;DHT22;13927;51.534;11.866;2023-10-09T03:52:05;12.80;99.90
26182;DHT22;13927;51.534;11.866;2023-10-09T03:54:32;12.90;99.90
26182;DHT22;13927;51.534;11.866;2023-10-09T03:57:00;12.90;99.90
26182;DHT22;13927;51.534;11.866;2023-10-09T03:59:27;12.90;99.90
26182;DHT22;13927;51.534;11.866;2023-10-09T04:01:57;12.90;99.90
26182;DHT22;13927;51.534;11.866;2023-10-09T04:04:24;13.00;99.90
26182;DHT22;13927;51.534;11.866;2023-10-09T04:06:50;13.00;99.90
26182;DHT22;13927;51.534;11.866;2023-10-09T04:09:19;13.00;99.90
26182;DHT22;13927;51.534;11.866;2023-10-09T04:11:48;13.10;99.90
26182;DHT22;13927;51.534;11.866;2023-10-09T04:14:39;13.10;99.90
26182;DHT22;13927;51.534;11.866;2023-10-09T04:17:15;13.10;99.90
26182;DHT22;13927;51.534;11.866;2023-10-09T04:19:50;13.10;99.90
26182;DHT22;13927;51.534;11.866;2023-10-09T04:22:35;13.10;99.90
26182;DHT22;13927;51.534;11.866;2023-10-09T04:25:05;13.20;99.90
26182;DHT22;13927;51.534;11.866;2023-10-09T04:27:43;13.20;99.90
26182;DHT22;13927;51.534;11.866;2023-10-09T04:30:10;13.20;99.90
26182;DHT22;13927;51.534;11.866;2023-10-09T04:32:41;13.20;99.90
26182;DHT22;13927;51.534;11.866;2023-10-09T04:35:11;13.20;99.90
26182;DHT22;13927;51.534;11.866;2023-10-09T04:37:50;13.20;99.90
26182;DHT22;13927;51.534;11.866;2023-10-09T04:40:29;13.20;99.90
26182;DHT22;13927;51.534;11.866;2023-10-09T04:43:14;13.20;99.90
26182;DHT22;13927;51.534;11.866;2023-10-09T04:45:47;13.20;99.90
26182;DHT22;13927;51.534;11.866;2023-10-09T04:48:34;13.20;99.90
26182;DHT22;13927;51.534;11.866;2023-10-09T04:51:11;13.20;99.90
26182;DHT22;13927;51.534;11.866;2023-10-09T04:53:47;13.20;99.90
26182;DHT22;13927;51.534;11.866;2023-10-09T04:56:25;13.30;99.90
26182;DHT22;13927;51.534;11.866;2023-10-09T04:58:57;13.30;99.90
26182;DHT22;13927;51.534;11.866;2023-10-09T05:01:29;13.30;99.90
26182;DHT22;13927;51.534;11.866;2023-10-09T05:04:03;13.30;99.90
26182;DHT22;13927;51.534;11.866;2023-10-09T05:06:29;13.30;99.90
26182;DHT22;13927;51.534;11.866;2023-10-09T05:09:08;13.30;99.90
26182;DHT22;13927;51.534;11.866;2023-10-09T05:11:35;13.20;99.90
26182;DHT22;13927;51.534;11.866;2023-10-09T05:14:20;13.20;99.90
26182;DHT22;13927;51.534;11.866;2023-10-09T05:16:53;13.20;99.90
26182;DHT22;13927;51.534;11.866;2023-10-09T05:19:23;13.10;99.90
26182;DHT22;13927;51.534;11.866;2023-10-09T05:22:10;13.10;99.90
26182;DHT22;13927;51.534;11.866;2023-10-09T05:24:56;13.10;99.90
26182;DHT22;13927;51.534;11.866;2023-10-09T05:27:22;13.10;99.90
26182;DHT22;13927;51.534;11.866;2023-10-09T05:30:07;13.10;99.90
26182;DHT22;13927;51.534;11.866;2023-10-09T05:32:53;13.20;99.90
26182;DHT22;13927;51.534;11.866;2023-10-09T05:35:24;13.20;99.90
26182;DHT22;13927;51.534;11.866;2023-10-09T05:38:07;13.20;99.90
26182;DHT22;13927;51.534;11.866;2023-10-09T05:40:48;13.30;99.90
26182;DHT22;13927;51.534;11.866;2023-10-09T05:43:19;13.30;99.90
26182;DHT22;13927;51.534;11.866;2023-10-09T05:46:04;13.30;99.90
26182;DHT22;13927;51.534;11.866;2023-10-09T05:48:33;13.30;99.90
26182;DHT22;13927;51.534;11.866;2023-10-09T05:51:19;13.40;99.90
26182;DHT22;13927;51.534;11.866;2023-10-09T05:54:04;13.40;99.90
26182;DHT22;13927;51.534;11.866;2023-10-09T05:56:50;13.40;99.90
26182;DHT22;13927;51.534;11.866;2023-10-09T05:59:34;13.50;99.90
26182;DHT22;13927;51.534;11.866;2023-10-09T06:02:18;13.50;99.90
26182;DHT22;13927;51.534;11.866;2023-10-09T06:05:02;13.50;99.90
26182;DHT22;13927;51.534;11.866;2023-10-09T06:07:48;13.50;99.90
26182;DHT22;13927;51.534;11.866;2023-10-09T06:10:32;13.50;99.90
26182;DHT22;13927;51.534;11.866;2023-10-09T06:13:06;13.60;99.90
26182;DHT22;13927;51.534;11.866;2023-10-09T06:15:39;13.50;99.90
26182;DHT22;13927;51.534;11.866;2023-10-09T06:18:11;13.60;99.90
26182;DHT22;13927;51.534;11.866;2023-10-09T06:20:51;13.60;99.90
26182;DHT22;13927;51.534;11.866;2023-10-09T06:23:43;13.60;99.90
26182;DHT22;13927;51.534;11.866;2023-10-09T06:26:34;13.50;99.90
26182;DHT22;13927;51.534;11.866;2023-10-09T06:29:00;13.50;99.90
26182;DHT22;13927;51.534;11.866;2023-10-09T06:31:42;13.50;99.90
26182;DHT22;13927;51.534;11.866;2023-10-09T06:34:26;13.50;99.90
26182;DHT22;13927;51.534;11.866;2023-10-09T06:37:01;13.40;99.90
26182;DHT22;13927;51.534;11.866;2023-10-09T06:39:56;13.40;99.90
26182;DHT22;13927;51.534;11.866;2023-10-09T06:42:28;13.30;99.90
26182;DHT22;13927;51.534;11.866;2023-10-09T06:45:03;13.40;99.90
26182;DHT22;13927;51.534;11.866;2023-10-09T06:47:35;13.40;99.90
26182;DHT22;13927;51.534;11.866;2023-10-09T06:50:10;13.40;99.90
26182;DHT22;13927;51.534;11.866;2023-10-09T06:52:46;13.40;99.90
26182;DHT22;13927;51.534;11.866;2023-10-09T06:55:44;13.30;99.90
26182;DHT22;13927;51.534;11.866;2023-10-09T06:58:29;13.30;99.90
26182;DHT22;13927;51.534;11.866;2023-10-09T07:01:08;13.40;99.90
26182;DHT22;13927;51.534;11.866;2023-10-09T07:03:56;13.40;99.90
26182;DHT22;13927;51.534;11.866;2023-10-09T07:06:35;13.40;99.90
26182;DHT22;13927;51.534;11.866;2023-10-09T07:09:02;13.50;99.90
26182;DHT22;13927;51.534;11.866;2023-10-09T07:11:41;13.50;99.90
26182;DHT22;13927;51.534;11.866;2023-10-09T07:14:13;13.60;99.90
26182;DHT22;13927;51.534;11.866;2023-10-09T07:17:01;13.60;99.90
26182;DHT22;13927;51.534;11.866;2023-10-09T07:19:42;13.80;99.90
26182;DHT22;13927;51.534;11.866;2023-10-09T07:22:09;13.80;99.90
26182;DHT22;13927;51.534;11.866;2023-10-09T07:24:53;13.90;99.90
26182;DHT22;13927;51.534;11.866;2023-10-09T07:27:39;14.00;99.90
26182;DHT22;13927;51.534;11.866;2023-10-09T07:30:25;14.00;99.90
26182;DHT22;13927;51.534;11.866;2023-10-09T07:33:06;14.10;99.90
26182;DHT22;13927;51.534;11.866;2023-10-09T07:35:39;14.00;99.90
26182;DHT22;13927;51.534;11.866;2023-10-09T07:38:09;14.10;99.90
26182;DHT22;13927;51.534;11.866;2023-10-09T07:40:37;14.20;99.90
26182;DHT22;13927;51.534;11.866;2023-10-09T07:43:26;14.20;99.90
26182;DHT22;13927;51.534;11.866;2023-10-09T07:46:09;14.20;99.90
26182;DHT22;13927;51.534;11.866;2023-10-09T07:49:20;14.20;99.90
26182;DHT22;13927;51.534;11.866;2023-10-09T07:51:53;14.30;99.90
26182;DHT22;13927;51.534;11.866;2023-10-09T07:54:19;14.30;99.90
26182;DHT22;13927;51.534;11.866;2023-10-09T07:57:01;14.30;99.90
26182;DHT22;13927;51.534;11.866;2023-10-09T07:59:41;14.30;99.90
26182;DHT22;13927;51.534;11.866;2023-10-09T08:02:21;14.40;99.90
26182;DHT22;13927;51.534;11.866;2023-10-09T08:05:00;14.40;99.90
26182;DHT22;13927;51.534;11.866;2023-10-09T08:07:30;14.50;99.90
26182;DHT22;13927;51.534;11.866;2023-10-09T08:10:06;14.50;99.90
26182;DHT22;13927;51.534;11.866;2023-10-09T08:12:39;14.40;99.90
26182;DHT22;13927;51.534;11.866;2023-10-09T08:15:17;14.40;99.90
26182;DHT22;13927;51.534;11.866;2023-10-09T08:17:53;14.30;99.90
26182;DHT22;13927;51.534;11.866;2023-10-09T08:20:29;14.30;99.90
26182;DHT22;13927;51.534;11.866;2023-10-09T08:23:14;14.30;99.90
26182;DHT22;13927;51.534;11.866;2023-10-09T08:26:04;14.30;99.90
26182;DHT22;13927;51.534;11.866;2023-10-09T08:28:38;14.20;99.90
26182;DHT22;13927;51.534;11.866;2023-10-09T08:31:11;14.10;99.90
26182;DHT22;13927;51.534;11.866;2023-10-09T08:33:56;14.10;99.90
26182;DHT22;13927;51.534;11.866;2023-10-09T08:36:27;14.00;99.90
26182;DHT22;13927;51.534;11.866;2023-10-09T08:38:57;14.00;99.90
26182;DHT22;13927;51.534;11.866;2023-10-09T08:41:40;14.10;99.90
26182;DHT22;13927;51.534;11.866;2023-10-09T08:44:07;14.10;99.90
26182;DHT22;13927;51.534;11.866;2023-10-09T08:46:33;14.20;99.90
26182;DHT22;13927;51.534;11.866;2023-10-09T08:48:59;14.10;99.90
26182;DHT22;13927;51.534;11.866;2023-10-09T08:51:27;14.10;99.90
26182;DHT22;13927;51.534;11.866;2023-10-09T08:53:54;14.10;99.90
26182;DHT22;13927;51.534;11.866;2023-10-09T08:56:21;14.10;99.90
26182;DHT22;13927;51.534;11.866;2023-10-09T08:58:56;14.20;99.90
26182;DHT22;13927;51.534;11.866;2023-10-09T09:01:23;14.20;99.90
26182;DHT22;13927;51.534;11.866;2023-10-09T09:03:51;14.10;99.90
26182;DHT22;13927;51.534;11.866;2023-10-09T09:06:21;14.10;99.90
26182;DHT22;13927;51.534;11.866;2023-10-09T09:08:49;14.10;99.90
26182;DHT22;13927;51.534;11.866;2023-10-09T09:11:20;14.10;99.90
26182;DHT22;13927;51.534;11.866;2023-10-09T09:16:31;14.10;99.90
26182;DHT22;13927;51.534;11.866;2023-10-09T09:21:37;14.20;99.90
26182;DHT22;13927;51.534;11.866;2023-10-09T09:24:07;14.30;99.90
26182;DHT22;13927;51.534;11.866;2023-10-09T09:27:01;14.30;99.90
26182;DHT22;13927;51.534;11.866;2023-10-09T09:29:56;14.30;99.90
26182;DHT22;13927;51.534;11.866;2023-10-09T09:32:30;14.40;99.90
26182;DHT22;13927;51.534;11.866;2023-10-09T09:35:03;14.50;99.90
26182;DHT22;13927;51.534;11.866;2023-10-09T09:37:34;14.50;99.90
26182;DHT22;13927;51.534;11.866;2023-10-09T09:40:17;14.70;99.90
26182;DHT22;13927;51.534;11.866;2023-10-09T09:43:01;14.80;99.90
26182;DHT22;13927;51.534;11.866;2023-10-09T09:45:40;14.90;99.90
26182;DHT22;13927;51.534;11.866;2023-10-09T09:48:14;15.00;99.90
26182;DHT22;13927;51.534;11.866;2023-10-09T09:50:43;15.10;99.90
26182;DHT22;13927;51.534;11.866;2023-10-09T09:53:14;15.20;99.90
26182;DHT22;13927;51.534;11.866;2023-10-09T09:55:52;15.40;99.90
26182;DHT22;13927;51.534;11.866;2023-10-09T09:58:25;15.50;99.90
26182;DHT22;13927;51.534;11.866;2023-10-09T10:01:03;15.60;99.90
26182;DHT22;13927;51.534;11.866;2023-10-09T10:03:58;15.60;99.90
26182;DHT22;13927;51.534;11.866;2023-10-09T10:06:28;15.60;99.90
26182;DHT22;13927;51.534;11.866;2023-10-09T10:08:58;15.60;99.90
26182;DHT22;13927;51.534;11.866;2023-10-09T10:11:44;15.50;99.90
26182;DHT22;13927;51.534;11.866;2023-10-09T10:14:13;15.50;99.90
26182;DHT22;13927;51.534;11.866;2023-10-09T10:17:06;15.50;99.90
26182;DHT22;13927;51.534;11.866;2023-10-09T10:20:07;15.50;99.90
26182;DHT22;13927;51.534;11.866;2023-10-09T10:22:45;15.60;99.90
26182;DHT22;13927;51.534;11.866;2023-10-09T10:28:35;15.70;99.90
26182;DHT22;13927;51.534;11.866;2023-10-09T10:31:08;15.80;99.90
26182;DHT22;13927;51.534;11.866;2023-10-09T10:36:22;16.00;99.90
26182;DHT22;13927;51.534;11.866;2023-10-09T10:39:07;16.10;99.90
26182;DHT22;13927;51.534;11.866;2023-10-09T10:41:36;16.20;99.90
26182;DHT22;13927;51.534;11.866;2023-10-09T10:44:04;16.30;99.90
26182;DHT22;13927;51.534;11.866;2023-10-09T10:46:48;16.30;99.90
26182;DHT22;13927;51.534;11.866;2023-10-09T10:49:18;16.40;99.90
26182;DHT22;13927;51.534;11.866;2023-10-09T10:51:50;16.50;99.90
26182;DHT22;13927;51.534;11.866;2023-10-09T10:54:26;16.60;99.90
26182;DHT22;13927;51.534;11.866;2023-10-09T10:56:58;16.70;99.90
26182;DHT22;13927;51.534;11.866;2023-10-09T10:59:31;16.80;99.90
26182;DHT22;13927;51.534;11.866;2023-10-09T11:02:09;16.80;99.90
26182;DHT22;13927;51.534;11.866;2023-10-09T11:04:35;16.90;99.90
26182;DHT22;13927;51.534;11.866;2023-10-09T11:07:08;16.90;99.90
26182;DHT22;13927;51.534;11.866;2023-10-09T11:09:57;16.90;99.90
26182;DHT22;13927;51.534;11.866;2023-10-09T11:15:12;16.80;99.90
26182;DHT22;13927;51.534;11.866;2023-10-09T11:18:07;16.70;99.90
26182;DHT22;13927;51.534;11.866;2023-10-09T11:20:34;16.80;99.90
26182;DHT22;13927;51.534;11.866;2023-10-09T11:23:04;16.70;99.90
26182;DHT22;13927;51.534;11.866;2023-10-09T11:25:46;16.60;99.90
26182;DHT22;13927;51.534;11.866;2023-10-09T11:28:25;16.60;99.90
26182;DHT22;13927;51.534;11.866;2023-10-09T11:31:05;16.60;99.90
26182;DHT22;13927;51.534;11.866;2023-10-09T11:33:51;16.50;99.90
26182;DHT22;13927;51.534;11.866;2023-10-09T11:36:19;16.50;99.90
26182;DHT22;13927;51.534;11.866;2023-10-09T11:38:57;16.50;99.90
26182;DHT22;13927;51.534;11.866;2023-10-09T11:41:40;16.50;99.90
26182;DHT22;13927;51.534;11.866;2023-10-09T11:44:10;16.50;99.90
26182;DHT22;13927;51.534;11.866;2023-10-09T11:46:58;16.60;99.90
26182;DHT22;13927;51.534;11.866;2023-10-09T11:49:49;16.60;99.90
26182;DHT22;13927;51.534;11.866;2023-10-09T11:52:55;16.60;99.90
26182;DHT22;13927;51.534;11.866;2023-10-09T11:55:35;16.70;99.90
26182;DHT22;13927;51.534;11.866;2023-10-09T11:58:02;16.70;99.90
26182;DHT22;13927;51.534;11.866;2023-10-09T12:00:30;16.70;99.90
26182;DHT22;13927;51.534;11.866;2023-10-09T12:03:10;16.80;99.90
26182;DHT22;13927;51.534;11.866;2023-10-09T12:05:35;16.80;99.90
26182;DHT22;13927;51.534;11.866;2023-10-09T12:08:03;16.90;99.90
26182;DHT22;13927;51.534;11.866;2023-10-09T12:10:34;16.90;99.90
26182;DHT22;13927;51.534;11.866;2023-10-09T12:13:04;17.00;99.90
26182;DHT22;13927;51.534;11.866;2023-10-09T12:15:31;17.00;99.90
26182;DHT22;13927;51.534;11.866;2023-10-09T12:18:07;17.10;99.90
26182;DHT22;13927;51.534;11.866;2023-10-09T12:20:35;17.10;99.90
26182;DHT22;13927;51.534;11.866;2023-10-09T12:23:02;17.10;99.90
26182;DHT22;13927;51.534;11.866;2023-10-09T12:25:32;17.10;99.90
26182;DHT22;13927;51.534;11.866;2023-10-09T12:28:01;17.00;99.90
26182;DHT22;13927;51.534;11.866;2023-10-09T12:30:29;17.00;99.90
26182;DHT22;13927;51.534;11.866;2023-10-09T12:32:56;17.00;99.90
26182;DHT22;13927;51.534;11.866;2023-10-09T12:35:26;17.10;99.90
26182;DHT22;13927;51.534;11.866;2023-10-09T12:37:54;17.00;99.90
26182;DHT22;13927;51.534;11.866;2023-10-09T12:40:21;17.00;99.90
26182;DHT22;13927;51.534;11.866;2023-10-09T12:42:54;17.00;99.90
26182;DHT22;13927;51.534;11.866;2023-10-09T12:45:25;16.90;99.90
26182;DHT22;13927;51.534;11.866;2023-10-09T12:47:58;16.90;99.90
26182;DHT22;13927;51.534;11.866;2023-10-09T12:50:25;16.80;99.90
26182;DHT22;13927;51.534;11.866;2023-10-09T12:52:57;16.70;99.90
26182;DHT22;13927;51.534;11.866;2023-10-09T12:55:39;16.80;99.90
26182;DHT22;13927;51.534;11.866;2023-10-09T12:58:09;16.80;99.90
26182;DHT22;13927;51.534;11.866;2023-10-09T13:00:40;16.80;99.90
26182;DHT22;13927;51.534;11.866;2023-10-09T13:03:12;16.80;99.90
26182;DHT22;13927;51.534;11.866;2023-10-09T13:05:52;16.80;99.90
26182;DHT22;13927;51.534;11.866;2023-10-09T13:08:27;16.80;99.90
26182;DHT22;13927;51.534;11.866;2023-10-09T13:10:57;16.80;99.90
26182;DHT22;13927;51.534;11.866;2023-10-09T13:13:30;16.90;99.90
26182;DHT22;13927;51.534;11.866;2023-10-09T13:16:18;16.90;99.90
26182;DHT22;13927;51.534;11.866;2023-10-09T13:18:54;16.90;99.90
26182;DHT22;13927;51.534;11.866;2023-10-09T13:23:48;16.90;99.90
26182;DHT22;13927;51.534;11.866;2023-10-09T13:26:20;16.90;99.90
26182;DHT22;13927;51.534;11.866;2023-10-09T13:28:54;17.00;99.90
26182;DHT22;13927;51.534;11.866;2023-10-09T13:31:25;17.00;99.90
26182;DHT22;13927;51.534;11.866;2023-10-09T13:33:52;17.00;99.90
26182;DHT22;13927;51.534;11.866;2023-10-09T13:36:25;17.00;99.90
26182;DHT22;13927;51.534;11.866;2023-10-09T13:38:57;17.00;99.90
26182;DHT22;13927;51.534;11.866;2023-10-09T13:41:31;17.00;99.90
26182;DHT22;13927;51.534;11.866;2023-10-09T13:43:57;17.10;99.90
26182;DHT22;13927;51.534;11.866;2023-10-09T13:46:23;17.10;99.90
26182;DHT22;13927;51.534;11.866;2023-10-09T13:48:50;17.10;99.90
26182;DHT22;13927;51.534;11.866;2023-10-09T13:51:18;17.10;99.90
26182;DHT22;13927;51.534;11.866;2023-10-09T13:53:45;17.10;99.90
26182;DHT22;13927;51.534;11.866;2023-10-09T13:56:19;17.10;99.90
26182;DHT22;13927;51.534;11.866;2023-10-09T13:58:52;17.10;99.90
26182;DHT22;13927;51.534;11.866;2023-10-09T14:01:20;17.10;99.90
26182;DHT22;13927;51.534;11.866;2023-10-09T14:03:59;17.10;99.90
26182;DHT22;13927;51.534;11.866;2023-10-09T14:06:26;17.10;99.90
26182;DHT22;13927;51.534;11.866;2023-10-09T14:08:58;17.10;99.90
26182;DHT22;13927;51.534;11.866;2023-10-09T14:11:34;17.10;99.90
26182;DHT22;13927;51.534;11.866;2023-10-09T14:14:04;17.10;99.90
26182;DHT22;13927;51.534;11.866;2023-10-09T14:16:35;17.10;99.90
26182;DHT22;13927;51.534;11.866;2023-10-09T14:19:01;17.10;99.90
26182;DHT22;13927;51.534;11.866;2023-10-09T14:21:33;17.10;99.90
26182;DHT22;13927;51.534;11.866;2023-10-09T14:24:07;16.90;99.90
26182;DHT22;13927;51.534;11.866;2023-10-09T14:26:43;16.80;99.90
26182;DHT22;13927;51.534;11.866;2023-10-09T14:29:11;16.60;99.90
26182;DHT22;13927;51.534;11.866;2023-10-09T14:31:42;16.60;99.90
26182;DHT22;13927;51.534;11.866;2023-10-09T14:34:09;16.50;99.90
26182;DHT22;13927;51.534;11.866;2023-10-09T14:36:35;16.40;99.90
26182;DHT22;13927;51.534;11.866;2023-10-09T14:39:01;16.30;99.90
26182;DHT22;13927;51.534;11.866;2023-10-09T14:41:29;16.30;99.90
26182;DHT22;13927;51.534;11.866;2023-10-09T14:43:59;16.30;99.90
26182;DHT22;13927;51.534;11.866;2023-10-09T14:46:24;16.30;99.90
26182;DHT22;13927;51.534;11.866;2023-10-09T14:48:54;16.30;99.90
26182;DHT22;13927;51.534;11.866;2023-10-09T14:51:24;16.40;99.90
26182;DHT22;13927;51.534;11.866;2023-10-09T14:53:56;16.40;99.90
26182;DHT22;13927;51.534;11.866;2023-10-09T14:56:29;16.40;99.90
26182;DHT22;13927;51.534;11.866;2023-10-09T14:58:56;16.50;99.90
26182;DHT22;13927;51.534;11.866;2023-10-09T15:01:24;16.50;99.90
26182;DHT22;13927;51.534;11.866;2023-10-09T15:03:58;16.50;99.90
26182;DHT22;13927;51.534;11.866;2023-10-09T15:06:30;16.60;99.90
26182;DHT22;13927;51.534;11.866;2023-10-09T15:08:59;16.60;99.90
26182;DHT22;13927;51.534;11.866;2023-10-09T15:11:34;16.60;99.90
26182;DHT22;13927;51.534;11.866;2023-10-09T15:14:00;16.60;99.90
26182;DHT22;13927;51.534;11.866;2023-10-09T15:16:26;16.60;99.90
26182;DHT22;13927;51.534;11.866;2023-10-09T15:18:54;16.50;99.90
26182;DHT22;13927;51.534;11.866;2023-10-09T15:21:22;16.60;99.90
26182;DHT22;13927;51.534;11.866;2023-10-09T15:23:53;16.60;99.90
26182;DHT22;13927;51.534;11.866;2023-10-09T15:26:23;16.50;99.90
26182;DHT22;13927;51.534;11.866;2023-10-09T15:28:51;16.50;99.90
26182;DHT22;13927;51.534;11.866;2023-10-09T15:31:17;16.50;99.90
26182;DHT22;13927;51.534;11.866;2023-10-09T15:33:44;16.50;99.90
26182;DHT22;13927;51.534;11.866;2023-10-09T15:36:17;16.50;99.90
26182;DHT22;13927;51.534;11.866;2023-10-09T15:38:45;16.40;99.90
26182;DHT22;13927;51.534;11.866;2023-10-09T15:41:11;16.40;99.90
26182;DHT22;13927;51.534;11.866;2023-10-09T15:43:40;16.30;99.90
26182;DHT22;13927;51.534;11.866;2023-10-09T15:46:11;16.30;99.90
26182;DHT22;13927;51.534;11.866;2023-10-09T15:48:42;16.30;99.90
26182;DHT22;13927;51.534;11.866;2023-10-09T15:51:14;16.20;99.90
26182;DHT22;13927;51.534;11.866;2023-10-09T15:53:42;16.30;99.90
26182;DHT22;13927;51.534;11.866;2023-10-09T15:56:09;16.30;99.90
26182;DHT22;13927;51.534;11.866;2023-10-09T15:58:38;16.30;99.90
26182;DHT22;13927;51.534;11.866;2023-10-09T16:01:13;16.30;99.90
26182;DHT22;13927;51.534;11.866;2023-10-09T16:03:43;16.30;99.90
26182;DHT22;13927;51.534;11.866;2023-10-09T16:06:10;16.30;99.90
26182;DHT22;13927;51.534;11.866;2023-10-09T16:08:48;16.30;99.90
26182;DHT22;13927;51.534;11.866;2023-10-09T16:11:22;16.30;99.90
26182;DHT22;13927;51.534;11.866;2023-10-09T16:13:52;16.30;99.90